Bei Facebook empfehlenBei Twitter postenGoogle plusPinterest

Das Wetter im Erzgebirge am 26.10.2016

Wetter und Klima am 26.10.2016 Holzhau im Erzgebirge (630m ü.NN)
Letzte gemessene Temperatur und Uhrzeit der Messung23:45:00 Uhr4.20 °C
Temperatur (Maximum / Höchstwert) und Uhrzeit der Messung15:30:00 Uhr8.90 °C
Temperatur (Minimum / Tiefstwert) und Uhrzeit der Messung21:15:003.80 °C
Errechneter Absolutwert der Temperaturschwankungen zwischen Tmin und Tmax des Tages5.10 K
Errechnete Tagesmitteltemperatur6.10208 °C
Gesamt - Niederschlag des Tages (in flüssiger Form)0.00 Liter / m²
Luftdruck (Maximum / Höchstwert) und Zeitpunkt der Messung21:45:00 Uhr1024.60 hPa
Luftdruck (Minimum / Tiefstwert) und Zeitpunkt der Messung00:15:00 Uhr1020.30 hPa
Errechneter Absolutwert der Luftdruckschwankungen des Tages4.30 hPa
Höchste gemessene Windgeschwindigkeit und Uhrzeit der Messung23:45:00 Uhr0.00 km/h
Errechnete Windhäufigkeit in Relation zu den Messwerten des Tages0.00000 %
Niedrigste Windkühle (Windchill) und Zeitpunkt der Messung21:15:00 Uhr3.80 °C
Taupunkt (Maximum / Höchstwert) und Uhrzeit der Messung14:15:00 Uhr8.50 °C
Taupunkt (Minimum / Tiefstwert) und Uhrzeit der Messung21:15:002.90 °C
Anzahl der automatisch eingelesenen Messwerte 96

Detaillierte Wetter- und Klima- Messwerte für den 26.10.2016 in Holzhau im Erzgebirge (630m ü.NN)
ZeitTemperaturLuftdruckRel. LuftfeuchteWindWindrichtungWindchillTaupunktNiederschlag l/m²
23:45:004.20 °C1024.30 hPa95.00 %3.50 °C 
23:30:004.10 °C1024.40 hPa95.00 %3.40 °C 
23:15:004.10 °C1024.10 hPa95.00 %3.40 °C 
23:00:004.10 °C1024.10 hPa95.00 %3.40 °C 
22:45:004.10 °C1024.10 hPa95.00 %3.40 °C 
22:30:004.10 °C1024.10 hPa95.00 %3.40 °C 
22:15:003.90 °C1024.20 hPa95.00 %3.20 °C 
22:00:003.90 °C1024.40 hPa95.00 %3.20 °C 
21:45:003.90 °C1024.60 hPa95.00 %3.20 °C 
21:30:003.90 °C1024.20 hPa95.00 %3.20 °C 
21:15:003.80 °C1024.20 hPa94.00 %2.90 °C 
21:00:003.90 °C1024.00 hPa94.00 %3.00 °C 
20:45:004.10 °C1023.80 hPa94.00 %3.20 °C 
20:30:004.10 °C1023.90 hPa94.00 %3.20 °C 
20:15:004.10 °C1023.70 hPa94.00 %3.20 °C 
20:00:004.30 °C1023.40 hPa94.00 %3.40 °C 
19:45:004.80 °C1023.60 hPa94.00 %3.90 °C 
19:30:005.30 °C1023.60 hPa94.00 %4.40 °C 
19:15:005.60 °C1023.60 hPa94.00 %4.70 °C 
19:00:005.80 °C1023.60 hPa94.00 %4.90 °C 
18:45:005.80 °C1023.50 hPa94.00 %4.90 °C 
18:30:005.90 °C1023.60 hPa94.00 %5.00 °C 
18:15:006.10 °C1023.60 hPa94.00 %5.20 °C 
18:00:006.20 °C1023.50 hPa94.00 %5.30 °C 
17:45:006.30 °C1023.30 hPa94.00 %5.40 °C 
17:30:006.60 °C1023.20 hPa94.00 %5.70 °C 
17:15:006.90 °C1023.40 hPa94.00 %6.00 °C 
17:00:007.20 °C1023.60 hPa94.00 %6.30 °C 
16:45:007.60 °C1023.50 hPa94.00 %6.70 °C 
16:30:007.90 °C1023.40 hPa95.00 %7.10 °C 
16:15:007.90 °C1023.30 hPa95.00 %7.10 °C 
16:00:007.90 °C1023.10 hPa95.00 %7.10 °C 
15:45:008.50 °C1023.10 hPa95.00 %7.70 °C 
15:30:008.90 °C1023.00 hPa96.00 %8.30 °C 
15:15:008.60 °C1023.00 hPa96.00 %8.00 °C 
15:00:008.30 °C1023.00 hPa96.00 %7.70 °C 
14:45:008.50 °C1023.10 hPa97.00 %8.10 °C 
14:30:008.60 °C1023.00 hPa97.00 %8.20 °C 
14:15:008.90 °C1023.10 hPa97.00 %8.50 °C 
14:00:008.20 °C1023.10 hPa97.00 %7.80 °C 
13:45:007.80 °C1023.10 hPa97.00 %7.40 °C 
13:30:007.40 °C1023.10 hPa97.00 %7.00 °C 
13:15:007.30 °C1023.10 hPa97.00 %6.90 °C 
13:00:006.90 °C1023.10 hPa97.00 %6.50 °C 
12:45:006.90 °C1023.20 hPa97.00 %6.50 °C 
12:30:006.80 °C1023.30 hPa97.00 %6.40 °C 
12:15:006.70 °C1023.30 hPa97.00 %6.30 °C 
12:00:006.60 °C1023.20 hPa97.00 %6.20 °C 
11:45:006.60 °C1023.30 hPa97.00 %6.20 °C 
11:30:006.50 °C1023.20 hPa97.00 %6.10 °C 
11:15:006.30 °C1023.10 hPa97.00 %5.90 °C 
11:00:006.20 °C1023.10 hPa97.00 %5.80 °C 
10:45:006.10 °C1023.00 hPa97.00 %5.70 °C 
10:30:006.10 °C1023.00 hPa97.00 %5.70 °C 
10:15:006.10 °C1022.90 hPa97.00 %5.70 °C 
10:00:006.20 °C1022.90 hPa97.00 %5.80 °C 
09:45:006.10 °C1022.80 hPa97.00 %5.70 °C 
09:30:005.90 °C1022.60 hPa97.00 %5.50 °C 
09:15:005.70 °C1022.60 hPa97.00 %5.30 °C 
09:00:005.50 °C1022.60 hPa97.00 %5.10 °C 
08:45:005.40 °C1022.60 hPa97.00 %5.00 °C 
08:30:005.40 °C1022.50 hPa97.00 %5.00 °C 
08:15:005.30 °C1022.50 hPa97.00 %4.90 °C 
08:00:005.30 °C1022.20 hPa97.00 %4.90 °C 
07:45:005.30 °C1022.20 hPa97.00 %4.90 °C 
07:30:005.30 °C1022.00 hPa97.00 %4.90 °C 
07:15:005.30 °C1021.90 hPa97.00 %4.90 °C 
07:00:005.30 °C1021.90 hPa97.00 %4.90 °C 
06:45:005.30 °C1021.70 hPa97.00 %4.90 °C 
06:30:005.30 °C1021.60 hPa97.00 %4.90 °C 
06:15:005.30 °C1021.60 hPa97.00 %4.90 °C 
06:00:005.40 °C1021.60 hPa97.00 %5.00 °C 
05:45:005.40 °C1021.40 hPa97.00 %5.00 °C 
05:30:005.30 °C1021.50 hPa97.00 %4.90 °C 
05:15:005.40 °C1021.30 hPa97.00 %5.00 °C 
05:00:005.40 °C1021.30 hPa97.00 %5.00 °C 
04:45:005.50 °C1021.20 hPa96.00 %4.90 °C 
04:30:005.60 °C1021.10 hPa97.00 %5.20 °C 
04:15:005.70 °C1021.00 hPa97.00 %5.30 °C 
04:00:005.90 °C1020.90 hPa97.00 %5.50 °C 
03:45:006.30 °C1020.70 hPa97.00 %5.90 °C 
03:30:006.60 °C1020.70 hPa97.00 %6.20 °C 
03:15:006.80 °C1020.80 hPa97.00 %6.40 °C 
03:00:006.90 °C1020.90 hPa97.00 %6.50 °C 
02:45:006.90 °C1020.80 hPa97.00 %6.50 °C 
02:30:006.90 °C1020.70 hPa97.00 %6.50 °C 
02:15:006.90 °C1020.50 hPa97.00 %6.50 °C 
02:00:006.90 °C1020.50 hPa97.00 %6.50 °C 
01:45:006.90 °C1020.50 hPa97.00 %6.50 °C 
01:30:007.00 °C1020.50 hPa97.00 %6.60 °C 
01:15:007.10 °C1020.50 hPa97.00 %6.70 °C 
01:00:007.10 °C1020.50 hPa97.00 %6.70 °C 
00:45:007.10 °C1020.40 hPa97.00 %6.70 °C 
00:30:007.20 °C1020.40 hPa97.00 %6.80 °C 
00:15:007.20 °C1020.30 hPa97.00 %6.80 °C 
00:00:007.30 °C1020.30 hPa97.00 %6.90 °C 

Permanenter Link zu dieser Seite: Wetter im Erzgebirge am 26.10.2016
Performance-Info: Die Erstellung der Seite / Statistik(en) / Tabelle(n) erforderte 5 Datenbankserver-Abfrage(n) und dauerte 102 Millisekunden. (Dieser Messwert ist von der Gesamt-Auslastung des Servers abhängig.)
Erzgebirge - Wetter | Erzgebirge - Wetter (Mobilgeräte) | Komplette Klimadatenbank